Coyote Springs, Nevada
Current Conditions -  °F | °C
As of 1:58 AM on Sunday 23 Nov 2014 (Local Time) from KINS Reporting Station
Clear Clear  
Wind Chill: 51°   Ceiling: Unl
Heat Index: 51°   Visibility: 10mi
Dew Point: 24°   Wind: 14mph
Humidity: 35%   Direction: 310°NW
Pressure: 30.11"   Gusts: NA
Location:  36.91°N, 114.95°W
Report Text: KINS 230958Z AUTO 31012KT 10SM CLR 11/M04 A3011 RMK AO2 SLP173 T01061045
Loading
Personal Weather Stations






























Interactive Weather Map New forecast layout! Learn more

10-Day Weather Forecast

Advertisements
Track Severe Weather on mobile